Time;durP1;ratioP1;P1;durP2;ratioP2;P2;SDS_P1;SDS_P2;PMS_P1;PMS_P2;Temp;Humidity;BMP_temperature;BMP_pressure;BME280_temperature;BME280_humidity;BME280_pressure;Samples;Min_cycle;Max_cycle;Signal;HPM_P1;HPM_P2
2021/05/25 00:01:43;;;;;;;4.63;1.50;;;;;;;;;;4436597;32;20203;-67
2021/05/25 00:04:08;;;;;;;3.10;1.17;;;;;;;;;;4437711;32;20137;-67
2021/05/25 00:06:33;;;;;;;5.15;1.65;;;;;;;;;;4437568;32;20523;-67
2021/05/25 00:08:59;;;;;;;2.83;1.60;;;;;;;;;;4437616;32;20138;-66
2021/05/25 00:11:24;;;;;;;2.40;1.70;;;;;;;;;;4436399;32;20163;-67
2021/05/25 00:13:49;;;;;;;3.05;1.70;;;;;;;;;;4435898;32;20446;-67
2021/05/25 00:16:14;;;;;;;3.93;1.50;;;;;;;;;;4437838;32;20293;-67
2021/05/25 00:18:39;;;;;;;2.33;1.60;;;;;;;;;;4437470;32;20153;-67
2021/05/25 00:21:05;;;;;;;3.07;1.70;;;;;;;;;;4435726;32;20554;-67
2021/05/25 00:23:30;;;;;;;2.17;1.60;;;;;;;;;;4436762;32;20172;-67
2021/05/25 00:25:55;;;;;;;2.83;1.40;;;;;;;;;;4435970;32;20186;-67
2021/05/25 00:28:21;;;;;;;4.83;1.60;;;;;;;;;;4437311;32;20263;-66
2021/05/25 00:30:46;;;;;;;3.47;1.70;;;;;;;;;;4437089;32;20565;-67
2021/05/25 00:33:11;;;;;;;5.53;2.00;;;;;;;;;;4437105;32;20145;-66
2021/05/25 00:35:39;;;;;;;1.60;1.40;;;;;;;;;;4437165;32;20172;-67
2021/05/25 00:38:05;;;;;;;3.85;1.50;;;;;;;;;;4436843;32;20133;-67
2021/05/25 00:40:30;;;;;;;2.13;1.20;;;;;;;;;;4437538;32;20223;-67
2021/05/25 00:42:55;;;;;;;3.23;1.37;;;;;;;;;;4437172;32;20291;-67
2021/05/25 00:45:20;;;;;;;2.70;1.40;;;;;;;;;;4436464;32;20484;-65
2021/05/25 00:47:46;;;;;;;2.03;1.20;;;;;;;;;;4437352;32;20203;-67
2021/05/25 00:50:13;;;;;;;3.23;1.40;;;;;;;;;;4437536;32;20523;-67
2021/05/25 00:52:43;;;;;;;1.77;1.50;;;;;;;;;;4421851;32;20169;-66
2021/05/25 00:55:09;;;;;;;3.40;2.10;;;;;;;;;;4437199;32;20543;-66
2021/05/25 00:57:35;;;;;;;3.27;2.03;;;;;;;;;;4437044;32;20165;-66
2021/05/25 01:00:00;;;;;;;4.33;2.47;;;;;;;;;;4435185;32;20274;-67
2021/05/25 01:02:25;;;;;;;4.07;2.30;;;;;;;;;;4436348;32;20155;-66
2021/05/25 01:04:51;;;;;;;4.90;2.77;;;;;;;;;;4434808;32;20137;-66
2021/05/25 01:07:16;;;;;;;4.53;2.63;;;;;;;;;;4436345;32;20283;-66
2021/05/25 01:09:41;;;;;;;5.20;3.17;;;;;;;;;;4435745;32;20538;-66
2021/05/25 01:12:08;;;;;;;5.27;2.80;;;;;;;;;;4434685;32;20173;-66
2021/05/25 01:14:40;;;;;;;7.27;3.33;;;;;;;;;;4436073;32;20142;-66
2021/05/25 01:17:05;;;;;;;6.17;3.10;;;;;;;;;;4435720;32;20130;-65
2021/05/25 01:19:30;;;;;;;5.33;3.30;;;;;;;;;;4436345;32;20603;-66
2021/05/25 01:21:55;;;;;;;5.90;3.80;;;;;;;;;;4435428;32;21055;-67
2021/05/25 01:24:28;;;;;;;7.07;3.80;;;;;;;;;;4434221;32;20603;-66
2021/05/25 01:26:59;;;;;;;7.70;4.17;;;;;;;;;;4435886;32;20198;-66
2021/05/25 01:29:24;;;;;;;9.93;4.20;;;;;;;;;;4434763;32;20527;-66
2021/05/25 01:31:49;;;;;;;7.00;4.63;;;;;;;;;;4436350;32;20190;-65
2021/05/25 01:34:14;;;;;;;6.43;4.33;;;;;;;;;;4421054;32;20162;-64
2021/05/25 01:36:39;;;;;;;9.43;5.27;;;;;;;;;;4434073;32;20183;-65
2021/05/25 01:39:05;;;;;;;14.00;5.60;;;;;;;;;;4435270;32;20130;-66
2021/05/25 01:41:30;;;;;;;11.47;5.37;;;;;;;;;;4434023;32;20229;-66
2021/05/25 01:43:55;;;;;;;11.33;5.60;;;;;;;;;;4435895;32;20190;-65
2021/05/25 01:46:20;;;;;;;9.63;5.30;;;;;;;;;;4435774;32;20134;-66
2021/05/25 01:48:47;;;;;;;13.00;6.00;;;;;;;;;;4433883;32;20293;-67
2021/05/25 01:51:13;;;;;;;13.07;5.90;;;;;;;;;;4435504;32;20269;-66
2021/05/25 01:53:38;;;;;;;13.07;6.53;;;;;;;;;;4433596;32;20141;-66
2021/05/25 01:56:03;;;;;;;13.83;6.43;;;;;;;;;;4433405;32;20296;-65
2021/05/25 01:58:29;;;;;;;12.67;7.13;;;;;;;;;;4434886;32;20554;-66
2021/05/25 02:00:56;;;;;;;12.03;6.83;;;;;;;;;;4421474;32;20569;-66
2021/05/25 02:03:21;;;;;;;14.97;7.23;;;;;;;;;;4436485;32;20130;-66
2021/05/25 02:05:47;;;;;;;13.50;7.53;;;;;;;;;;4434792;32;20169;-66
2021/05/25 02:08:12;;;;;;;14.53;7.90;;;;;;;;;;4434475;32;20196;-67
2021/05/25 02:10:39;;;;;;;17.63;7.53;;;;;;;;;;4435607;32;20190;-67
2021/05/25 02:13:08;;;;;;;16.50;7.80;;;;;;;;;;4433897;32;20144;-66
2021/05/25 02:15:34;;;;;;;13.33;7.47;;;;;;;;;;4435170;32;20189;-66
2021/05/25 02:18:03;;;;;;;14.47;7.70;;;;;;;;;;4435600;32;20495;-67
2021/05/25 02:20:29;;;;;;;16.60;8.30;;;;;;;;;;4435917;32;20133;-66
2021/05/25 02:22:54;;;;;;;16.57;8.20;;;;;;;;;;4434141;32;20489;-66
2021/05/25 02:25:19;;;;;;;16.37;8.73;;;;;;;;;;4433713;32;20159;-66
2021/05/25 02:27:44;;;;;;;18.97;9.13;;;;;;;;;;4435254;32;20200;-67
2021/05/25 02:30:10;;;;;;;17.57;8.13;;;;;;;;;;4435430;32;20160;-66
2021/05/25 02:32:35;;;;;;;19.33;9.17;;;;;;;;;;4435748;32;20570;-66
2021/05/25 02:35:00;;;;;;;20.83;9.53;;;;;;;;;;4433570;32;20578;-66
2021/05/25 02:37:25;;;;;;;19.27;8.90;;;;;;;;;;4434422;32;20196;-66
2021/05/25 02:39:50;;;;;;;18.43;8.80;;;;;;;;;;4434862;32;20126;-67
2021/05/25 02:42:16;;;;;;;15.43;9.03;;;;;;;;;;4434191;32;20165;-67
2021/05/25 02:44:41;;;;;;;18.33;8.00;;;;;;;;;;4435332;32;20606;-67
2021/05/25 02:47:06;;;;;;;17.80;9.20;;;;;;;;;;4435101;32;20161;-67
2021/05/25 02:49:31;;;;;;;19.97;8.87;;;;;;;;;;4435401;32;20134;-67
2021/05/25 02:51:56;;;;;;;16.90;9.30;;;;;;;;;;4435144;32;20514;-67
2021/05/25 02:54:21;;;;;;;18.87;9.70;;;;;;;;;;4435485;32;20213;-67
2021/05/25 02:56:47;;;;;;;20.43;9.23;;;;;;;;;;4420813;32;20181;-65
2021/05/25 02:59:12;;;;;;;17.13;9.10;;;;;;;;;;4418950;32;20166;-65
2021/05/25 03:01:37;;;;;;;16.23;10.10;;;;;;;;;;4433565;32;20150;-66
2021/05/25 03:04:02;;;;;;;19.50;10.03;;;;;;;;;;4432873;32;20160;-66
2021/05/25 03:06:27;;;;;;;18.37;9.13;;;;;;;;;;4434726;32;20465;-66
2021/05/25 03:08:53;;;;;;;17.43;9.13;;;;;;;;;;4434648;32;20134;-66
2021/05/25 03:11:18;;;;;;;19.17;9.00;;;;;;;;;;4433437;32;20156;-66
2021/05/25 03:13:43;;;;;;;15.07;8.90;;;;;;;;;;4432978;32;20145;-66
2021/05/25 03:16:08;;;;;;;19.57;10.03;;;;;;;;;;4433914;32;20714;-67
2021/05/25 03:18:33;;;;;;;18.13;10.33;;;;;;;;;;4435242;32;20141;-67
2021/05/25 03:20:58;;;;;;;16.67;9.23;;;;;;;;;;4434697;32;20130;-67
2021/05/25 03:23:24;;;;;;;19.03;10.13;;;;;;;;;;4434324;32;20156;-66
2021/05/25 03:25:50;;;;;;;21.47;9.77;;;;;;;;;;4433354;32;20133;-66
2021/05/25 03:28:16;;;;;;;17.27;10.80;;;;;;;;;;4434174;32;20134;-66
2021/05/25 03:30:43;;;;;;;18.50;10.17;;;;;;;;;;4434604;32;20168;-66
2021/05/25 03:33:08;;;;;;;22.17;11.20;;;;;;;;;;4432993;32;20194;-66
2021/05/25 03:35:33;;;;;;;22.27;10.17;;;;;;;;;;4433199;32;20141;-66
2021/05/25 03:37:58;;;;;;;20.73;10.20;;;;;;;;;;4429973;32;20558;-66
2021/05/25 03:40:24;;;;;;;18.97;10.87;;;;;;;;;;4435137;32;20159;-66
2021/05/25 03:42:50;;;;;;;20.23;10.77;;;;;;;;;;4419827;32;20264;-66
2021/05/25 03:45:16;;;;;;;18.53;9.93;;;;;;;;;;4433027;32;20264;-66
2021/05/25 03:47:41;;;;;;;20.17;10.83;;;;;;;;;;4420867;32;20192;-66
2021/05/25 03:50:08;;;;;;;24.30;10.73;;;;;;;;;;4433811;32;20568;-67
2021/05/25 03:52:37;;;;;;;20.30;11.83;;;;;;;;;;4434523;32;20169;-66
2021/05/25 03:55:05;;;;;;;20.90;12.70;;;;;;;;;;4434838;32;20141;-66
2021/05/25 03:59:58;;;;;;;23.03;10.97;;;;;;;;;;4433962;32;20185;-67
2021/05/25 04:02:23;;;;;;;19.30;11.20;;;;;;;;;;4435144;32;20130;-66
2021/05/25 04:04:48;;;;;;;23.10;10.60;;;;;;;;;;4434426;32;20248;-65
2021/05/25 04:07:14;;;;;;;19.30;10.67;;;;;;;;;;4419828;32;20173;-67
2021/05/25 04:09:39;;;;;;;18.83;10.67;;;;;;;;;;4431392;32;20248;-66
2021/05/25 04:12:04;;;;;;;18.50;11.23;;;;;;;;;;4428658;32;20181;-66
2021/05/25 04:14:30;;;;;;;19.47;10.83;;;;;;;;;;4433476;32;20133;-66
2021/05/25 04:16:56;;;;;;;23.57;12.50;;;;;;;;;;4410556;32;20552;-68
2021/05/25 04:19:21;;;;;;;22.70;12.47;;;;;;;;;;4419493;32;20194;-67
2021/05/25 04:21:47;;;;;;;19.00;10.83;;;;;;;;;;4418670;32;20165;-67
2021/05/25 04:24:12;;;;;;;22.00;11.43;;;;;;;;;;4419101;32;20199;-67
2021/05/25 04:26:37;;;;;;;25.70;12.00;;;;;;;;;;4417576;32;20126;-66
2021/05/25 04:29:03;;;;;;;22.20;11.60;;;;;;;;;;4427061;32;20527;-66
2021/05/25 04:31:28;;;;;;;19.17;11.37;;;;;;;;;;4419919;32;20257;-65
2021/05/25 04:33:53;;;;;;;21.17;11.17;;;;;;;;;;4432760;32;20167;-67
2021/05/25 04:36:18;;;;;;;24.77;10.93;;;;;;;;;;4433691;32;20134;-66
2021/05/25 04:38:44;;;;;;;20.63;11.80;;;;;;;;;;4433983;32;20264;-67
2021/05/25 04:41:09;;;;;;;19.53;10.90;;;;;;;;;;4435296;32;20232;-66
2021/05/25 04:43:34;;;;;;;21.43;11.40;;;;;;;;;;4435768;32;20574;-66
2021/05/25 04:45:59;;;;;;;16.83;10.57;;;;;;;;;;4422169;32;20164;-66
2021/05/25 04:48:25;;;;;;;17.83;10.40;;;;;;;;;;4407267;32;20297;-66
2021/05/25 04:50:50;;;;;;;16.53;10.23;;;;;;;;;;4422078;32;20213;-66
2021/05/25 04:53:15;;;;;;;16.03;9.53;;;;;;;;;;4422189;32;20463;-67
2021/05/25 04:55:40;;;;;;;14.73;9.07;;;;;;;;;;4421509;32;20540;-67
2021/05/25 04:58:06;;;;;;;16.30;8.73;;;;;;;;;;4420945;32;20187;-66
2021/05/25 05:00:31;;;;;;;12.83;8.13;;;;;;;;;;4422165;32;20540;-66
2021/05/25 05:02:56;;;;;;;10.25;7.00;;;;;;;;;;4408494;32;20200;-67
2021/05/25 05:05:22;;;;;;;16.48;8.00;;;;;;;;;;4408048;32;20583;-66
2021/05/25 05:07:48;;;;;;;15.10;8.83;;;;;;;;;;4421611;32;20208;-66
2021/05/25 05:10:14;;;;;;;11.70;7.67;;;;;;;;;;4420033;32;20253;-67
2021/05/25 05:12:39;;;;;;;11.67;7.87;;;;;;;;;;4406778;32;20185;-67
2021/05/25 05:15:05;;;;;;;11.70;7.60;;;;;;;;;;4407696;32;20223;-67
2021/05/25 05:17:31;;;;;;;13.03;7.97;;;;;;;;;;4421019;32;20130;-68
2021/05/25 05:19:56;;;;;;;12.05;8.30;;;;;;;;;;4421682;32;20130;-67
2021/05/25 05:22:21;;;;;;;12.93;8.23;;;;;;;;;;4421403;32;20168;-68
2021/05/25 05:24:47;;;;;;;16.77;8.00;;;;;;;;;;4419752;32;20194;-67
2021/05/25 05:27:12;;;;;;;12.43;7.13;;;;;;;;;;4420968;32;20470;-67
2021/05/25 05:29:37;;;;;;;13.20;7.47;;;;;;;;;;4421935;32;20146;-69
2021/05/25 05:32:03;;;;;;;9.68;6.62;;;;;;;;;;4421885;32;20164;-68
2021/05/25 05:34:28;;;;;;;14.07;8.17;;;;;;;;;;4420230;32;20174;-67
2021/05/25 05:36:53;;;;;;;13.30;6.47;;;;;;;;;;4421489;32;20169;-67
2021/05/25 05:39:18;;;;;;;10.00;6.60;;;;;;;;;;4421802;32;20419;-66
2021/05/25 05:41:44;;;;;;;13.60;7.47;;;;;;;;;;4421143;32;20137;-67
2021/05/25 05:44:09;;;;;;;13.50;7.63;;;;;;;;;;4419706;32;20169;-67
2021/05/25 05:46:34;;;;;;;11.30;6.70;;;;;;;;;;4420964;32;20130;-67
2021/05/25 05:48:59;;;;;;;10.13;6.73;;;;;;;;;;4422844;32;20551;-67
2021/05/25 05:51:25;;;;;;;11.27;5.97;;;;;;;;;;4433415;32;20145;-69
2021/05/25 05:53:50;;;;;;;8.23;5.68;;;;;;;;;;4436711;32;20138;-66
2021/05/25 05:56:16;;;;;;;11.50;5.72;;;;;;;;;;4435947;32;20179;-68
2021/05/25 05:58:41;;;;;;;10.27;5.72;;;;;;;;;;4440538;32;20210;-66
2021/05/25 06:01:08;;;;;;;8.27;4.90;;;;;;;;;;4438084;32;20333;-65
2021/05/25 06:03:33;;;;;;;12.37;5.27;;;;;;;;;;4422669;32;20253;-66
2021/05/25 06:05:58;;;;;;;8.63;4.93;;;;;;;;;;4423902;32;20142;-67
2021/05/25 06:08:23;;;;;;;5.95;4.80;;;;;;;;;;4424188;32;20150;-65
2021/05/25 06:10:51;;;;;;;9.27;5.50;;;;;;;;;;4418826;32;20578;-67
2021/05/25 06:13:20;;;;;;;9.87;5.93;;;;;;;;;;4418421;32;20198;-67
2021/05/25 06:15:45;;;;;;;10.45;6.10;;;;;;;;;;4419330;32;20257;-66
2021/05/25 06:18:10;;;;;;;10.50;5.53;;;;;;;;;;4418732;32;20133;-67
2021/05/25 06:20:35;;;;;;;7.90;5.62;;;;;;;;;;4421574;32;20168;-65
2021/05/25 06:23:01;;;;;;;8.48;5.60;;;;;;;;;;4405860;32;20174;-67
2021/05/25 06:25:26;;;;;;;8.35;5.43;;;;;;;;;;4431756;32;20323;-65
2021/05/25 06:27:52;;;;;;;8.15;5.43;;;;;;;;;;4432298;32;20285;-66
2021/05/25 06:30:18;;;;;;;11.60;5.37;;;;;;;;;;4410668;32;20227;-67
2021/05/25 06:32:43;;;;;;;8.35;5.75;;;;;;;;;;4428098;32;20176;-66
2021/05/25 06:35:09;;;;;;;9.95;5.70;;;;;;;;;;4414593;32;20198;-67
2021/05/25 06:37:34;;;;;;;9.35;5.10;;;;;;;;;;4435346;32;20141;-66
2021/05/25 06:40:00;;;;;;;11.20;6.60;;;;;;;;;;4434248;32;20130;-67
2021/05/25 06:42:25;;;;;;;11.55;5.85;;;;;;;;;;4414473;32;20622;-67
2021/05/25 06:44:50;;;;;;;9.52;5.70;;;;;;;;;;4434724;32;20209;-66
2021/05/25 06:47:15;;;;;;;9.98;5.20;;;;;;;;;;4434734;32;20133;-66
2021/05/25 06:49:40;;;;;;;7.12;4.93;;;;;;;;;;4428602;32;20146;-67
2021/05/25 06:52:06;;;;;;;6.40;4.90;;;;;;;;;;4427979;32;20141;-69
2021/05/25 06:54:32;;;;;;;9.88;4.25;;;;;;;;;;4442160;32;20149;-66
2021/05/25 06:56:57;;;;;;;7.22;3.90;;;;;;;;;;4440230;32;20177;-66
2021/05/25 06:59:22;;;;;;;7.62;3.10;;;;;;;;;;4418280;32;20135;-66
2021/05/25 07:01:48;;;;;;;9.90;3.37;;;;;;;;;;4431333;32;20149;-66
2021/05/25 07:04:13;;;;;;;9.95;2.70;;;;;;;;;;4428387;32;20237;-66
2021/05/25 07:06:38;;;;;;;9.02;2.92;;;;;;;;;;4413379;32;20340;-66
2021/05/25 07:09:04;;;;;;;11.55;2.45;;;;;;;;;;4418290;32;20157;-66
2021/05/25 07:11:29;;;;;;;7.20;2.10;;;;;;;;;;4426571;32;20161;-66
2021/05/25 07:13:54;;;;;;;7.22;2.58;;;;;;;;;;4434553;32;20146;-64
2021/05/25 07:16:19;;;;;;;7.72;2.17;;;;;;;;;;4434627;32;20187;-65
2021/05/25 07:18:45;;;;;;;10.45;2.50;;;;;;;;;;4433129;32;20150;-65
2021/05/25 07:21:10;;;;;;;15.13;3.33;;;;;;;;;;4434589;32;20193;-66
2021/05/25 07:23:35;;;;;;;11.30;2.53;;;;;;;;;;4418887;32;20256;-66
2021/05/25 07:26:01;;;;;;;6.68;2.15;;;;;;;;;;4424026;32;20523;-65
2021/05/25 07:28:26;;;;;;;11.32;3.33;;;;;;;;;;4433303;32;20246;-65
2021/05/25 07:30:51;;;;;;;12.32;3.67;;;;;;;;;;4422441;32;20153;-65
2021/05/25 07:33:16;;;;;;;14.25;5.18;;;;;;;;;;4435645;32;20267;-66
2021/05/25 07:35:42;;;;;;;17.20;5.60;;;;;;;;;;4422709;32;20173;-64
2021/05/25 07:38:07;;;;;;;21.20;5.55;;;;;;;;;;4427423;32;20227;-65
2021/05/25 07:40:32;;;;;;;19.48;4.65;;;;;;;;;;4420628;32;20129;-65
2021/05/25 07:42:57;;;;;;;11.68;4.50;;;;;;;;;;4405996;32;20211;-64
2021/05/25 07:45:23;;;;;;;13.52;5.00;;;;;;;;;;4420402;32;20141;-64
2021/05/25 07:47:48;;;;;;;9.85;4.22;;;;;;;;;;4420607;32;20203;-64
2021/05/25 07:50:14;;;;;;;7.95;3.78;;;;;;;;;;4419185;32;20126;-64
2021/05/25 07:52:43;;;;;;;11.95;4.43;;;;;;;;;;4431881;32;20153;-67
2021/05/25 07:55:09;;;;;;;10.82;3.80;;;;;;;;;;4429169;32;20183;-65
2021/05/25 07:57:34;;;;;;;9.68;3.75;;;;;;;;;;4430300;32;20154;-65
2021/05/25 07:59:59;;;;;;;7.75;3.60;;;;;;;;;;4431046;32;20153;-63
2021/05/25 08:02:25;;;;;;;10.43;3.62;;;;;;;;;;4428036;32;20166;-65
2021/05/25 08:04:50;;;;;;;6.80;3.00;;;;;;;;;;4421610;32;20605;-65
2021/05/25 08:07:15;;;;;;;10.02;3.62;;;;;;;;;;4434783;32;20130;-65
2021/05/25 08:09:40;;;;;;;8.37;3.27;;;;;;;;;;4436075;32;20133;-64
2021/05/25 08:12:05;;;;;;;7.62;3.40;;;;;;;;;;4433380;32;20241;-64
2021/05/25 08:14:30;;;;;;;9.05;3.58;;;;;;;;;;4435044;32;20236;-64
2021/05/25 08:17:04;;;;;;;9.70;3.60;;;;;;;;;;4427240;32;20531;-64
2021/05/25 08:19:31;;;;;;;10.75;3.95;;;;;;;;;;4424720;32;20249;-64
2021/05/25 08:21:56;;;;;;;6.82;3.58;;;;;;;;;;4434156;32;20141;-63
2021/05/25 08:24:21;;;;;;;9.50;3.42;;;;;;;;;;4426976;32;20172;-64
2021/05/25 08:26:47;;;;;;;6.80;3.47;;;;;;;;;;4421004;32;20214;-64
2021/05/25 08:29:12;;;;;;;9.48;3.53;;;;;;;;;;4421573;32;20376;-64
2021/05/25 08:31:37;;;;;;;8.88;3.35;;;;;;;;;;4434889;32;20265;-63
2021/05/25 08:34:02;;;;;;;8.68;2.83;;;;;;;;;;4434923;32;20170;-64
2021/05/25 08:36:31;;;;;;;8.60;2.92;;;;;;;;;;4422342;32;20158;-64
2021/05/25 08:38:56;;;;;;;7.03;3.10;;;;;;;;;;4421902;32;20134;-65
2021/05/25 08:41:22;;;;;;;8.57;3.50;;;;;;;;;;4422484;32;20574;-65
2021/05/25 08:43:47;;;;;;;9.93;3.25;;;;;;;;;;4422966;32;20196;-65
2021/05/25 08:46:12;;;;;;;13.00;3.35;;;;;;;;;;4435135;32;20202;-65
2021/05/25 08:48:41;;;;;;;8.80;3.17;;;;;;;;;;4436724;32;20152;-65
2021/05/25 08:51:06;;;;;;;9.73;2.62;;;;;;;;;;4432448;32;20251;-65
2021/05/25 08:53:32;;;;;;;9.15;3.28;;;;;;;;;;4425141;32;20156;-64
2021/05/25 08:55:57;;;;;;;9.20;3.87;;;;;;;;;;4427418;32;20187;-65
2021/05/25 08:58:22;;;;;;;10.50;3.70;;;;;;;;;;4422481;32;20192;-64
2021/05/25 09:00:48;;;;;;;8.98;3.92;;;;;;;;;;4418120;32;20520;-65
2021/05/25 09:03:14;;;;;;;7.47;3.70;;;;;;;;;;4410653;32;20306;-66
2021/05/25 09:05:46;;;;;;;9.02;3.20;;;;;;;;;;4406821;32;20154;-65
2021/05/25 09:08:12;;;;;;;6.78;2.53;;;;;;;;;;4407573;32;20231;-65
2021/05/25 09:10:47;;;;;;;6.05;2.42;;;;;;;;;;4412753;32;20549;-68
2021/05/25 09:13:16;;;;;;;11.05;3.25;;;;;;;;;;4419281;32;20249;-66
2021/05/25 09:15:46;;;;;;;6.37;2.30;;;;;;;;;;4421882;32;20158;-65
2021/05/25 09:18:33;;;;;;;10.63;2.58;;;;;;;;;;4414180;32;20142;-65
2021/05/25 09:20:58;;;;;;;9.32;2.78;;;;;;;;;;4406787;32;20161;-65
2021/05/25 09:23:43;;;;;;;7.97;2.30;;;;;;;;;;4405574;32;20200;-65
2021/05/25 09:26:16;;;;;;;4.72;1.70;;;;;;;;;;4405371;32;20234;-65
2021/05/25 09:28:56;;;;;;;6.28;1.98;;;;;;;;;;4405687;32;20166;-66
2021/05/25 09:31:25;;;;;;;5.57;1.85;;;;;;;;;;4411622;32;20289;-66
2021/05/25 09:34:23;;;;;;;6.68;2.30;;;;;;;;;;4412663;32;20145;-66
2021/05/25 09:36:57;;;;;;;7.12;1.65;;;;;;;;;;4386644;32;20162;-66
2021/05/25 09:39:24;;;;;;;5.45;2.00;;;;;;;;;;4420171;32;20159;-66
2021/05/25 09:41:56;;;;;;;6.28;1.87;;;;;;;;;;4408694;32;20146;-66
2021/05/25 09:44:21;;;;;;;13.27;2.00;;;;;;;;;;4404667;32;20142;-65
2021/05/25 09:46:49;;;;;;;7.53;1.80;;;;;;;;;;4404578;32;20193;-66
2021/05/25 09:49:15;;;;;;;5.57;1.95;;;;;;;;;;4404324;32;20255;-66
2021/05/25 09:51:40;;;;;;;6.93;1.95;;;;;;;;;;4403624;32;20174;-66
2021/05/25 09:54:17;;;;;;;7.10;2.00;;;;;;;;;;4407648;32;20214;-66
2021/05/25 09:56:54;;;;;;;5.72;1.58;;;;;;;;;;4408926;32;20562;-65
2021/05/25 09:59:36;;;;;;;5.22;1.70;;;;;;;;;;4420370;32;20222;-67
2021/05/25 10:02:31;;;;;;;6.90;2.10;;;;;;;;;;4419447;32;20180;-65
2021/05/25 10:05:07;;;;;;;8.48;2.40;;;;;;;;;;4416201;32;20153;-66
2021/05/25 10:07:36;;;;;;;7.68;2.00;;;;;;;;;;4420955;32;20245;-66
2021/05/25 10:10:03;;;;;;;7.12;1.80;;;;;;;;;;4435648;32;20153;-66
2021/05/25 10:12:29;;;;;;;3.25;1.58;;;;;;;;;;4436858;32;20196;-65
2021/05/25 10:14:54;;;;;;;4.28;1.73;;;;;;;;;;4435901;32;20155;-64
2021/05/25 10:20:09;;;;;;;5.85;1.73;;;;;;;;;;4394823;32;20153;-65
2021/05/25 10:22:34;;;;;;;4.90;1.77;;;;;;;;;;4424168;32;20149;-65
2021/05/25 10:25:00;;;;;;;4.50;1.50;;;;;;;;;;4415704;32;20666;-66
2021/05/25 10:27:28;;;;;;;5.37;1.90;;;;;;;;;;4427253;32;20575;-66
2021/05/25 10:29:54;;;;;;;8.57;1.85;;;;;;;;;;4434695;32;20254;-66
2021/05/25 10:32:23;;;;;;;6.32;2.00;;;;;;;;;;4431559;32;20169;-66
2021/05/25 10:34:50;;;;;;;4.35;1.37;;;;;;;;;;4421159;32;21365;-66
2021/05/25 10:37:15;;;;;;;5.22;1.40;;;;;;;;;;4421390;32;20218;-65
2021/05/25 10:39:43;;;;;;;6.50;1.50;;;;;;;;;;4420302;32;20571;-65
2021/05/25 10:42:21;;;;;;;5.18;1.30;;;;;;;;;;4421541;32;20323;-66
2021/05/25 10:44:54;;;;;;;4.90;1.40;;;;;;;;;;4424440;32;20206;-66
2021/05/25 10:47:31;;;;;;;6.60;1.65;;;;;;;;;;4435763;32;20176;-66
2021/05/25 10:50:11;;;;;;;3.35;1.08;;;;;;;;;;4432031;32;20164;-66
2021/05/25 10:52:36;;;;;;;4.95;1.15;;;;;;;;;;4433577;32;20153;-66
2021/05/25 10:55:02;;;;;;;2.97;1.08;;;;;;;;;;4435307;32;20198;-66
2021/05/25 10:57:30;;;;;;;6.80;1.05;;;;;;;;;;4417539;32;20303;-66
2021/05/25 11:00:04;;;;;;;4.60;1.00;;;;;;;;;;4419517;32;20142;-66
2021/05/25 11:02:43;;;;;;;2.45;1.02;;;;;;;;;;4408003;32;20589;-67
2021/05/25 11:05:38;;;;;;;5.03;1.00;;;;;;;;;;4406020;32;20606;-65
2021/05/25 11:08:09;;;;;;;2.25;0.90;;;;;;;;;;4402313;32;20527;-66
2021/05/25 11:10:36;;;;;;;1.73;0.70;;;;;;;;;;4421697;32;20201;-66
2021/05/25 11:13:14;;;;;;;3.03;0.90;;;;;;;;;;4423782;32;20148;-66
2021/05/25 11:16:22;;;;;;;3.47;1.00;;;;;;;;;;4420037;32;20546;-66
2021/05/25 11:21:36;;;;;;;2.97;0.90;;;;;;;;;;4429599;32;20602;-66
2021/05/25 11:24:21;;;;;;;5.20;1.10;;;;;;;;;;4434405;32;20205;-65
2021/05/25 11:26:55;;;;;;;4.80;0.98;;;;;;;;;;4434362;32;20168;-65
2021/05/25 11:29:27;;;;;;;3.35;0.90;;;;;;;;;;4420021;32;20145;-65
2021/05/25 11:31:53;;;;;;;2.85;0.93;;;;;;;;;;4420938;32;20157;-66
2021/05/25 11:34:19;;;;;;;3.95;0.80;;;;;;;;;;4423626;32;20172;-66
2021/05/25 11:36:45;;;;;;;3.67;1.23;;;;;;;;;;4419946;32;20149;-67
2021/05/25 11:39:10;;;;;;;3.67;1.00;;;;;;;;;;4406679;32;20161;-66
2021/05/25 11:41:36;;;;;;;3.20;0.93;;;;;;;;;;4420337;32;20337;-66
2021/05/25 11:44:05;;;;;;;1.92;0.90;;;;;;;;;;4420322;32;20188;-67
2021/05/25 11:46:41;;;;;;;3.92;1.00;;;;;;;;;;4428305;32;20572;-65
2021/05/25 11:49:06;;;;;;;3.03;1.10;;;;;;;;;;4439055;32;20133;-65
2021/05/25 11:51:32;;;;;;;2.85;0.80;;;;;;;;;;4432372;32;20224;-66
2021/05/25 11:54:06;;;;;;;4.97;0.82;;;;;;;;;;4425173;32;20197;-66
2021/05/25 11:56:31;;;;;;;3.95;0.95;;;;;;;;;;4424101;32;20185;-66
2021/05/25 11:58:56;;;;;;;5.00;1.80;;;;;;;;;;4421932;32;20253;-66
2021/05/25 12:01:22;;;;;;;2.47;0.90;;;;;;;;;;4421471;32;20679;-66
2021/05/25 12:03:49;;;;;;;1.95;0.93;;;;;;;;;;4427681;32;20330;-66
2021/05/25 12:06:14;;;;;;;3.12;1.00;;;;;;;;;;4425822;32;20154;-64
2021/05/25 12:08:39;;;;;;;2.92;1.00;;;;;;;;;;4420454;32;20134;-66
2021/05/25 12:11:04;;;;;;;3.95;1.25;;;;;;;;;;4420921;32;20126;-66
2021/05/25 12:13:30;;;;;;;3.30;1.17;;;;;;;;;;4420671;32;20249;-64
2021/05/25 12:15:55;;;;;;;5.12;1.33;;;;;;;;;;4422191;32;20238;-65
2021/05/25 12:18:22;;;;;;;5.43;1.45;;;;;;;;;;4436936;32;20228;-66
2021/05/25 12:20:54;;;;;;;2.15;1.27;;;;;;;;;;4434630;32;20188;-66
2021/05/25 12:23:24;;;;;;;3.33;1.10;;;;;;;;;;4435909;32;20165;-65
2021/05/25 12:25:50;;;;;;;4.60;1.40;;;;;;;;;;4407950;32;20158;-66
2021/05/25 12:28:23;;;;;;;3.03;1.10;;;;;;;;;;4429439;32;20157;-66
2021/05/25 12:30:52;;;;;;;3.75;1.08;;;;;;;;;;4424433;32;20591;-66
2021/05/25 12:33:18;;;;;;;4.87;1.70;;;;;;;;;;4408720;32;20232;-67
2021/05/25 12:35:44;;;;;;;3.80;1.40;;;;;;;;;;4425076;32;20161;-66
2021/05/25 12:38:10;;;;;;;3.90;1.30;;;;;;;;;;4449793;32;20175;-66
2021/05/25 12:40:36;;;;;;;2.17;1.20;;;;;;;;;;4428897;32;20203;-65
2021/05/25 12:43:21;;;;;;;4.93;1.50;;;;;;;;;;4421725;32;20164;-66
2021/05/25 12:45:47;;;;;;;5.10;1.45;;;;;;;;;;4427350;32;20150;-66
2021/05/25 12:48:13;;;;;;;5.00;1.37;;;;;;;;;;4434182;32;20198;-66
2021/05/25 12:50:41;;;;;;;5.50;1.20;;;;;;;;;;4423182;32;20444;-65
2021/05/25 12:53:19;;;;;;;6.20;1.67;;;;;;;;;;4424667;32;20212;-65
2021/05/25 12:56:03;;;;;;;5.97;1.52;;;;;;;;;;4421907;32;20563;-67
2021/05/25 12:58:37;;;;;;;4.25;1.70;;;;;;;;;;4423276;32;20145;-66
2021/05/25 13:01:18;;;;;;;6.00;1.77;;;;;;;;;;4420090;32;20593;-66
2021/05/25 13:03:44;;;;;;;3.72;1.52;;;;;;;;;;4423422;32;20612;-65
2021/05/25 13:06:11;;;;;;;6.40;1.67;;;;;;;;;;4423513;32;20139;-66
2021/05/25 13:08:36;;;;;;;6.55;2.00;;;;;;;;;;4421623;32;20161;-65
2021/05/25 13:11:08;;;;;;;4.53;1.70;;;;;;;;;;4423910;32;20142;-66
2021/05/25 13:13:38;;;;;;;3.90;1.40;;;;;;;;;;4421078;32;20269;-66
2021/05/25 13:16:03;;;;;;;4.60;1.30;;;;;;;;;;4424452;32;20188;-65
2021/05/25 13:18:39;;;;;;;2.97;1.25;;;;;;;;;;4424604;32;20154;-65
2021/05/25 13:21:04;;;;;;;5.10;1.83;;;;;;;;;;4413662;32;20185;-66
2021/05/25 13:23:31;;;;;;;2.20;1.27;;;;;;;;;;4420223;32;20149;-66
2021/05/25 13:28:44;;;;;;;10.95;1.52;;;;;;;;;;4422559;32;20168;-65
2021/05/25 13:31:16;;;;;;;6.50;1.42;;;;;;;;;;4435444;32;20160;-66
2021/05/25 13:33:41;;;;;;;6.12;1.80;;;;;;;;;;4435597;32;20144;-66
2021/05/25 13:36:06;;;;;;;7.87;1.70;;;;;;;;;;4436571;32;20222;-65
2021/05/25 13:38:32;;;;;;;2.70;1.45;;;;;;;;;;4436913;32;20230;-66
2021/05/25 13:40:57;;;;;;;6.20;1.27;;;;;;;;;;4430382;32;20244;-67
2021/05/25 13:43:22;;;;;;;3.97;1.45;;;;;;;;;;4435502;32;20169;-66
2021/05/25 13:45:47;;;;;;;3.42;1.80;;;;;;;;;;4436567;32;20165;-66
2021/05/25 13:48:13;;;;;;;5.97;1.67;;;;;;;;;;4428185;32;20651;-66
2021/05/25 13:50:38;;;;;;;4.12;1.90;;;;;;;;;;4413605;32;20161;-67
2021/05/25 13:53:03;;;;;;;3.55;1.67;;;;;;;;;;4426968;32;20220;-66
2021/05/25 13:55:29;;;;;;;5.50;2.33;;;;;;;;;;4426160;32;20257;-66
2021/05/25 13:57:55;;;;;;;6.93;2.00;;;;;;;;;;4420514;32;20229;-66
2021/05/25 14:00:41;;;;;;;3.60;2.10;;;;;;;;;;4419181;32;20517;-67
2021/05/25 14:03:06;;;;;;;9.55;2.00;;;;;;;;;;4421074;32;20157;-67
2021/05/25 14:05:32;;;;;;;7.32;2.55;;;;;;;;;;4431446;32;20225;-66
2021/05/25 14:07:57;;;;;;;6.95;2.25;;;;;;;;;;4434867;32;20394;-67
2021/05/25 14:10:22;;;;;;;7.22;2.03;;;;;;;;;;4426557;32;20203;-67
2021/05/25 14:12:47;;;;;;;7.50;2.50;;;;;;;;;;4432729;32;20181;-66
2021/05/25 14:15:13;;;;;;;7.78;2.70;;;;;;;;;;4433139;32;20192;-67
2021/05/25 14:17:38;;;;;;;5.75;2.20;;;;;;;;;;4422275;32;20142;-66
2021/05/25 14:20:04;;;;;;;5.82;2.40;;;;;;;;;;4425825;32;20586;-67
2021/05/25 14:22:29;;;;;;;7.03;2.00;;;;;;;;;;4405822;32;20166;-67
2021/05/25 14:24:54;;;;;;;5.95;2.10;;;;;;;;;;4418661;32;20161;-67
2021/05/25 14:27:19;;;;;;;6.25;2.47;;;;;;;;;;4424837;32;20191;-67
2021/05/25 14:29:46;;;;;;;5.97;2.13;;;;;;;;;;4433015;32;20134;-66
2021/05/25 14:32:12;;;;;;;5.47;1.90;;;;;;;;;;4415459;32;20253;-66
2021/05/25 14:34:37;;;;;;;6.53;1.92;;;;;;;;;;4417875;32;20659;-66
2021/05/25 14:37:03;;;;;;;4.37;2.17;;;;;;;;;;4417616;32;20153;-66
2021/05/25 14:39:28;;;;;;;5.15;1.80;;;;;;;;;;4421681;32;20583;-66
2021/05/25 14:41:53;;;;;;;6.80;2.28;;;;;;;;;;4430859;32;20447;-66
2021/05/25 14:44:18;;;;;;;4.40;1.40;;;;;;;;;;4419648;32;20181;-66
2021/05/25 14:46:46;;;;;;;4.07;1.65;;;;;;;;;;4418010;32;20137;-66